sensor_id;sensor_type;location;lat;lon;timestamp;P1;durP1;ratioP1;P2;durP2;ratioP2
31990;SDS011;18508;49.386;8.370;2022-12-19T00:00:30;54.15;;;19.95;;
31990;SDS011;18508;49.386;8.370;2022-12-19T00:02:59;54.20;;;20.58;;
31990;SDS011;18508;49.386;8.370;2022-12-19T00:05:28;55.78;;;20.38;;
31990;SDS011;18508;49.386;8.370;2022-12-19T00:07:58;59.92;;;21.17;;
31990;SDS011;18508;49.386;8.370;2022-12-19T00:10:40;56.33;;;20.25;;
31990;SDS011;18508;49.386;8.370;2022-12-19T00:13:13;56.25;;;20.38;;
31990;SDS011;18508;49.386;8.370;2022-12-19T00:15:44;62.72;;;22.73;;
31990;SDS011;18508;49.386;8.370;2022-12-19T00:18:13;58.55;;;21.33;;
31990;SDS011;18508;49.386;8.370;2022-12-19T00:20:42;63.00;;;21.95;;
31990;SDS011;18508;49.386;8.370;2022-12-19T00:23:12;55.25;;;20.88;;
31990;SDS011;18508;49.386;8.370;2022-12-19T00:25:40;55.42;;;20.13;;
31990;SDS011;18508;49.386;8.370;2022-12-19T00:28:12;55.40;;;22.10;;
31990;SDS011;18508;49.386;8.370;2022-12-19T00:30:46;61.03;;;21.88;;
31990;SDS011;18508;49.386;8.370;2022-12-19T00:33:16;55.50;;;19.50;;
31990;SDS011;18508;49.386;8.370;2022-12-19T00:35:44;54.58;;;19.92;;
31990;SDS011;18508;49.386;8.370;2022-12-19T00:38:13;55.60;;;20.52;;
31990;SDS011;18508;49.386;8.370;2022-12-19T00:40:48;56.58;;;21.35;;
31990;SDS011;18508;49.386;8.370;2022-12-19T00:43:17;65.78;;;21.70;;
31990;SDS011;18508;49.386;8.370;2022-12-19T00:45:47;51.15;;;20.48;;
31990;SDS011;18508;49.386;8.370;2022-12-19T00:48:16;52.65;;;19.75;;
31990;SDS011;18508;49.386;8.370;2022-12-19T00:50:44;53.15;;;20.55;;
31990;SDS011;18508;49.386;8.370;2022-12-19T00:53:12;56.85;;;21.92;;
31990;SDS011;18508;49.386;8.370;2022-12-19T00:55:40;60.13;;;20.45;;
31990;SDS011;18508;49.386;8.370;2022-12-19T00:58:08;55.38;;;20.25;;
31990;SDS011;18508;49.386;8.370;2022-12-19T01:00:36;58.20;;;19.92;;
31990;SDS011;18508;49.386;8.370;2022-12-19T01:03:09;55.88;;;20.60;;
31990;SDS011;18508;49.386;8.370;2022-12-19T01:05:38;54.60;;;20.55;;
31990;SDS011;18508;49.386;8.370;2022-12-19T01:08:08;59.85;;;20.58;;
31990;SDS011;18508;49.386;8.370;2022-12-19T01:10:43;50.22;;;19.42;;
31990;SDS011;18508;49.386;8.370;2022-12-19T01:13:12;50.38;;;19.45;;
31990;SDS011;18508;49.386;8.370;2022-12-19T01:15:39;58.25;;;20.85;;
31990;SDS011;18508;49.386;8.370;2022-12-19T01:18:08;52.80;;;19.83;;
31990;SDS011;18508;49.386;8.370;2022-12-19T01:20:38;45.53;;;18.25;;
31990;SDS011;18508;49.386;8.370;2022-12-19T01:23:08;54.08;;;20.90;;
31990;SDS011;18508;49.386;8.370;2022-12-19T01:25:36;59.13;;;20.63;;
31990;SDS011;18508;49.386;8.370;2022-12-19T01:28:09;49.20;;;19.92;;
31990;SDS011;18508;49.386;8.370;2022-12-19T01:30:43;54.45;;;20.00;;
31990;SDS011;18508;49.386;8.370;2022-12-19T01:33:15;62.28;;;20.83;;
31990;SDS011;18508;49.386;8.370;2022-12-19T01:35:48;54.78;;;19.63;;
31990;SDS011;18508;49.386;8.370;2022-12-19T01:38:18;50.67;;;19.55;;
31990;SDS011;18508;49.386;8.370;2022-12-19T01:40:49;54.57;;;20.50;;
31990;SDS011;18508;49.386;8.370;2022-12-19T01:43:18;52.85;;;20.77;;
31990;SDS011;18508;49.386;8.370;2022-12-19T01:45:47;57.30;;;20.90;;
31990;SDS011;18508;49.386;8.370;2022-12-19T01:48:23;57.05;;;20.73;;
31990;SDS011;18508;49.386;8.370;2022-12-19T01:50:57;54.90;;;20.00;;
31990;SDS011;18508;49.386;8.370;2022-12-19T01:53:30;53.95;;;20.15;;
31990;SDS011;18508;49.386;8.370;2022-12-19T01:56:14;54.28;;;20.48;;
31990;SDS011;18508;49.386;8.370;2022-12-19T01:58:43;54.38;;;19.63;;
31990;SDS011;18508;49.386;8.370;2022-12-19T02:01:14;57.80;;;20.38;;
31990;SDS011;18508;49.386;8.370;2022-12-19T02:03:45;50.97;;;20.10;;
31990;SDS011;18508;49.386;8.370;2022-12-19T02:06:14;51.35;;;20.02;;
31990;SDS011;18508;49.386;8.370;2022-12-19T02:08:43;49.35;;;18.73;;
31990;SDS011;18508;49.386;8.370;2022-12-19T02:11:13;50.88;;;19.38;;
31990;SDS011;18508;49.386;8.370;2022-12-19T02:13:41;52.10;;;20.23;;
31990;SDS011;18508;49.386;8.370;2022-12-19T02:16:14;51.38;;;20.13;;
31990;SDS011;18508;49.386;8.370;2022-12-19T02:18:56;48.65;;;18.17;;
31990;SDS011;18508;49.386;8.370;2022-12-19T02:21:40;48.47;;;18.73;;
31990;SDS011;18508;49.386;8.370;2022-12-19T02:24:38;53.72;;;19.45;;
31990;SDS011;18508;49.386;8.370;2022-12-19T02:30:41;54.00;;;20.05;;
31990;SDS011;18508;49.386;8.370;2022-12-19T02:33:18;56.78;;;20.35;;
31990;SDS011;18508;49.386;8.370;2022-12-19T02:35:54;49.67;;;19.20;;
31990;SDS011;18508;49.386;8.370;2022-12-19T02:38:32;56.08;;;19.55;;
31990;SDS011;18508;49.386;8.370;2022-12-19T02:41:06;47.55;;;19.00;;
31990;SDS011;18508;49.386;8.370;2022-12-19T02:43:40;52.92;;;18.88;;
31990;SDS011;18508;49.386;8.370;2022-12-19T02:46:18;45.55;;;17.55;;
31990;SDS011;18508;49.386;8.370;2022-12-19T02:48:47;48.00;;;18.90;;
31990;SDS011;18508;49.386;8.370;2022-12-19T02:51:16;50.95;;;19.35;;
31990;SDS011;18508;49.386;8.370;2022-12-19T02:53:44;56.05;;;20.73;;
31990;SDS011;18508;49.386;8.370;2022-12-19T02:56:32;52.70;;;18.23;;
31990;SDS011;18508;49.386;8.370;2022-12-19T02:59:07;52.75;;;20.38;;
31990;SDS011;18508;49.386;8.370;2022-12-19T03:01:44;48.15;;;18.73;;
31990;SDS011;18508;49.386;8.370;2022-12-19T03:04:19;50.67;;;19.02;;
31990;SDS011;18508;49.386;8.370;2022-12-19T03:06:59;54.58;;;18.95;;
31990;SDS011;18508;49.386;8.370;2022-12-19T03:09:36;53.85;;;18.88;;
31990;SDS011;18508;49.386;8.370;2022-12-19T03:12:18;54.22;;;19.77;;
31990;SDS011;18508;49.386;8.370;2022-12-19T03:14:50;50.10;;;19.75;;
31990;SDS011;18508;49.386;8.370;2022-12-19T03:17:21;51.53;;;19.17;;
31990;SDS011;18508;49.386;8.370;2022-12-19T03:19:49;54.28;;;19.60;;
31990;SDS011;18508;49.386;8.370;2022-12-19T03:22:17;54.80;;;19.63;;
31990;SDS011;18508;49.386;8.370;2022-12-19T03:24:46;51.58;;;19.10;;
31990;SDS011;18508;49.386;8.370;2022-12-19T03:27:18;47.78;;;19.02;;
31990;SDS011;18508;49.386;8.370;2022-12-19T03:29:52;49.35;;;18.52;;
31990;SDS011;18508;49.386;8.370;2022-12-19T03:32:27;47.60;;;17.85;;
31990;SDS011;18508;49.386;8.370;2022-12-19T03:34:58;46.22;;;18.08;;
31990;SDS011;18508;49.386;8.370;2022-12-19T03:37:31;49.17;;;18.65;;
31990;SDS011;18508;49.386;8.370;2022-12-19T03:40:02;52.53;;;20.15;;
31990;SDS011;18508;49.386;8.370;2022-12-19T03:42:36;53.50;;;18.52;;
31990;SDS011;18508;49.386;8.370;2022-12-19T03:45:25;54.42;;;18.42;;
31990;SDS011;18508;49.386;8.370;2022-12-19T03:47:59;54.22;;;18.85;;
31990;SDS011;18508;49.386;8.370;2022-12-19T03:50:31;49.28;;;18.88;;
31990;SDS011;18508;49.386;8.370;2022-12-19T03:53:17;47.13;;;18.40;;
31990;SDS011;18508;49.386;8.370;2022-12-19T03:55:57;52.55;;;19.52;;
31990;SDS011;18508;49.386;8.370;2022-12-19T03:58:33;41.67;;;17.63;;
31990;SDS011;18508;49.386;8.370;2022-12-19T04:03:34;52.38;;;18.50;;
31990;SDS011;18508;49.386;8.370;2022-12-19T04:06:10;51.30;;;18.85;;
31990;SDS011;18508;49.386;8.370;2022-12-19T04:08:39;53.47;;;20.13;;
31990;SDS011;18508;49.386;8.370;2022-12-19T04:11:12;53.35;;;19.48;;
31990;SDS011;18508;49.386;8.370;2022-12-19T04:13:47;55.80;;;20.10;;
31990;SDS011;18508;49.386;8.370;2022-12-19T04:16:19;51.50;;;18.60;;
31990;SDS011;18508;49.386;8.370;2022-12-19T04:18:55;47.30;;;18.98;;
31990;SDS011;18508;49.386;8.370;2022-12-19T04:21:30;52.22;;;19.38;;
31990;SDS011;18508;49.386;8.370;2022-12-19T04:24:03;51.15;;;19.63;;
31990;SDS011;18508;49.386;8.370;2022-12-19T04:26:38;47.70;;;19.88;;
31990;SDS011;18508;49.386;8.370;2022-12-19T04:29:11;48.67;;;18.52;;
31990;SDS011;18508;49.386;8.370;2022-12-19T04:31:42;55.90;;;20.25;;
31990;SDS011;18508;49.386;8.370;2022-12-19T04:34:14;49.20;;;19.00;;
31990;SDS011;18508;49.386;8.370;2022-12-19T04:36:47;52.35;;;19.52;;
31990;SDS011;18508;49.386;8.370;2022-12-19T04:39:16;57.00;;;18.83;;
31990;SDS011;18508;49.386;8.370;2022-12-19T04:41:45;54.83;;;20.45;;
31990;SDS011;18508;49.386;8.370;2022-12-19T04:44:14;47.65;;;18.23;;
31990;SDS011;18508;49.386;8.370;2022-12-19T04:46:45;53.22;;;19.55;;
31990;SDS011;18508;49.386;8.370;2022-12-19T04:49:15;50.42;;;19.50;;
31990;SDS011;18508;49.386;8.370;2022-12-19T04:51:43;52.67;;;20.50;;
31990;SDS011;18508;49.386;8.370;2022-12-19T04:54:11;52.30;;;19.67;;
31990;SDS011;18508;49.386;8.370;2022-12-19T04:56:39;58.78;;;20.70;;
31990;SDS011;18508;49.386;8.370;2022-12-19T04:59:08;51.42;;;19.55;;
31990;SDS011;18508;49.386;8.370;2022-12-19T05:01:36;51.90;;;19.88;;
31990;SDS011;18508;49.386;8.370;2022-12-19T05:04:04;55.50;;;20.13;;
31990;SDS011;18508;49.386;8.370;2022-12-19T05:06:34;58.22;;;20.67;;
31990;SDS011;18508;49.386;8.370;2022-12-19T05:09:02;56.00;;;19.80;;
31990;SDS011;18508;49.386;8.370;2022-12-19T05:11:30;50.78;;;18.95;;
31990;SDS011;18508;49.386;8.370;2022-12-19T05:14:00;54.25;;;20.60;;
31990;SDS011;18508;49.386;8.370;2022-12-19T05:16:28;48.92;;;20.02;;
31990;SDS011;18508;49.386;8.370;2022-12-19T05:18:56;50.75;;;20.33;;
31990;SDS011;18508;49.386;8.370;2022-12-19T05:21:24;56.75;;;20.45;;
31990;SDS011;18508;49.386;8.370;2022-12-19T05:23:54;58.83;;;22.13;;
31990;SDS011;18508;49.386;8.370;2022-12-19T05:26:22;54.53;;;20.00;;
31990;SDS011;18508;49.386;8.370;2022-12-19T05:28:50;51.80;;;18.80;;
31990;SDS011;18508;49.386;8.370;2022-12-19T05:31:19;54.30;;;20.30;;
31990;SDS011;18508;49.386;8.370;2022-12-19T05:33:50;54.80;;;21.60;;
31990;SDS011;18508;49.386;8.370;2022-12-19T05:36:18;55.60;;;22.63;;
31990;SDS011;18508;49.386;8.370;2022-12-19T05:38:54;52.25;;;20.63;;
31990;SDS011;18508;49.386;8.370;2022-12-19T05:41:22;53.25;;;20.52;;
31990;SDS011;18508;49.386;8.370;2022-12-19T05:43:51;53.85;;;20.23;;
31990;SDS011;18508;49.386;8.370;2022-12-19T05:46:20;47.90;;;20.23;;
31990;SDS011;18508;49.386;8.370;2022-12-19T05:48:49;54.72;;;20.48;;
31990;SDS011;18508;49.386;8.370;2022-12-19T05:51:19;51.88;;;20.65;;
31990;SDS011;18508;49.386;8.370;2022-12-19T05:53:48;56.50;;;21.13;;
31990;SDS011;18508;49.386;8.370;2022-12-19T05:56:18;56.30;;;21.73;;
31990;SDS011;18508;49.386;8.370;2022-12-19T05:58:48;56.97;;;21.60;;
31990;SDS011;18508;49.386;8.370;2022-12-19T06:01:18;54.38;;;20.85;;
31990;SDS011;18508;49.386;8.370;2022-12-19T06:03:47;57.72;;;20.98;;
31990;SDS011;18508;49.386;8.370;2022-12-19T06:06:17;55.33;;;20.85;;
31990;SDS011;18508;49.386;8.370;2022-12-19T06:08:51;53.55;;;20.98;;
31990;SDS011;18508;49.386;8.370;2022-12-19T06:11:21;50.80;;;19.95;;
31990;SDS011;18508;49.386;8.370;2022-12-19T06:13:50;50.20;;;20.73;;
31990;SDS011;18508;49.386;8.370;2022-12-19T06:16:19;51.90;;;20.60;;
31990;SDS011;18508;49.386;8.370;2022-12-19T06:18:49;47.38;;;19.50;;
31990;SDS011;18508;49.386;8.370;2022-12-19T06:21:18;56.72;;;23.20;;
31990;SDS011;18508;49.386;8.370;2022-12-19T06:23:51;57.72;;;23.80;;
31990;SDS011;18508;49.386;8.370;2022-12-19T06:26:19;54.53;;;22.40;;
31990;SDS011;18508;49.386;8.370;2022-12-19T06:28:49;56.03;;;20.73;;
31990;SDS011;18508;49.386;8.370;2022-12-19T06:31:19;53.03;;;22.75;;
31990;SDS011;18508;49.386;8.370;2022-12-19T06:33:48;50.05;;;20.98;;
31990;SDS011;18508;49.386;8.370;2022-12-19T06:36:20;53.95;;;22.20;;
31990;SDS011;18508;49.386;8.370;2022-12-19T06:38:50;49.00;;;20.63;;
31990;SDS011;18508;49.386;8.370;2022-12-19T06:41:19;52.53;;;20.30;;
31990;SDS011;18508;49.386;8.370;2022-12-19T06:44:07;53.63;;;20.73;;
31990;SDS011;18508;49.386;8.370;2022-12-19T06:46:38;56.67;;;22.50;;
31990;SDS011;18508;49.386;8.370;2022-12-19T06:49:07;52.88;;;20.13;;
31990;SDS011;18508;49.386;8.370;2022-12-19T06:51:35;57.63;;;21.65;;
31990;SDS011;18508;49.386;8.370;2022-12-19T06:54:03;59.13;;;21.33;;
31990;SDS011;18508;49.386;8.370;2022-12-19T06:56:34;55.35;;;21.38;;
31990;SDS011;18508;49.386;8.370;2022-12-19T06:59:08;55.40;;;22.27;;
31990;SDS011;18508;49.386;8.370;2022-12-19T07:01:45;54.25;;;22.23;;
31990;SDS011;18508;49.386;8.370;2022-12-19T07:04:20;51.95;;;20.08;;
31990;SDS011;18508;49.386;8.370;2022-12-19T07:06:53;52.83;;;21.08;;
31990;SDS011;18508;49.386;8.370;2022-12-19T07:09:21;55.58;;;20.83;;
31990;SDS011;18508;49.386;8.370;2022-12-19T07:11:51;55.22;;;21.05;;
31990;SDS011;18508;49.386;8.370;2022-12-19T07:14:19;60.30;;;22.17;;
31990;SDS011;18508;49.386;8.370;2022-12-19T07:16:47;58.65;;;21.92;;
31990;SDS011;18508;49.386;8.370;2022-12-19T07:19:17;51.22;;;21.90;;
31990;SDS011;18508;49.386;8.370;2022-12-19T07:21:46;53.90;;;20.55;;
31990;SDS011;18508;49.386;8.370;2022-12-19T07:24:15;54.33;;;20.48;;
31990;SDS011;18508;49.386;8.370;2022-12-19T07:26:44;52.45;;;21.00;;
31990;SDS011;18508;49.386;8.370;2022-12-19T07:29:14;55.20;;;20.95;;
31990;SDS011;18508;49.386;8.370;2022-12-19T07:31:42;52.60;;;21.00;;
31990;SDS011;18508;49.386;8.370;2022-12-19T07:34:10;56.88;;;22.40;;
31990;SDS011;18508;49.386;8.370;2022-12-19T07:36:39;52.80;;;21.55;;
31990;SDS011;18508;49.386;8.370;2022-12-19T07:39:07;61.17;;;22.00;;
31990;SDS011;18508;49.386;8.370;2022-12-19T07:41:35;55.13;;;22.25;;
31990;SDS011;18508;49.386;8.370;2022-12-19T07:44:04;61.67;;;23.05;;
31990;SDS011;18508;49.386;8.370;2022-12-19T07:46:35;65.05;;;24.30;;
31990;SDS011;18508;49.386;8.370;2022-12-19T07:49:03;59.72;;;22.65;;
31990;SDS011;18508;49.386;8.370;2022-12-19T07:51:31;56.65;;;23.15;;
31990;SDS011;18508;49.386;8.370;2022-12-19T07:53:59;57.05;;;22.25;;
31990;SDS011;18508;49.386;8.370;2022-12-19T07:56:27;56.58;;;23.95;;
31990;SDS011;18508;49.386;8.370;2022-12-19T07:58:58;60.53;;;22.65;;
31990;SDS011;18508;49.386;8.370;2022-12-19T08:01:26;50.30;;;20.13;;
31990;SDS011;18508;49.386;8.370;2022-12-19T08:03:57;52.17;;;21.08;;
31990;SDS011;18508;49.386;8.370;2022-12-19T08:06:25;57.17;;;23.65;;
31990;SDS011;18508;49.386;8.370;2022-12-19T08:08:54;54.83;;;22.45;;
31990;SDS011;18508;49.386;8.370;2022-12-19T08:11:30;56.92;;;21.63;;
31990;SDS011;18508;49.386;8.370;2022-12-19T08:13:58;53.92;;;22.00;;
31990;SDS011;18508;49.386;8.370;2022-12-19T08:16:26;56.13;;;21.95;;
31990;SDS011;18508;49.386;8.370;2022-12-19T08:18:54;52.80;;;22.23;;
31990;SDS011;18508;49.386;8.370;2022-12-19T08:21:24;64.07;;;23.23;;
31990;SDS011;18508;49.386;8.370;2022-12-19T08:23:52;52.67;;;22.27;;
31990;SDS011;18508;49.386;8.370;2022-12-19T08:26:21;64.80;;;23.20;;
31990;SDS011;18508;49.386;8.370;2022-12-19T08:28:51;59.28;;;24.42;;
31990;SDS011;18508;49.386;8.370;2022-12-19T08:31:20;59.88;;;23.70;;
31990;SDS011;18508;49.386;8.370;2022-12-19T08:33:51;59.85;;;23.77;;
31990;SDS011;18508;49.386;8.370;2022-12-19T08:36:20;53.70;;;23.98;;
31990;SDS011;18508;49.386;8.370;2022-12-19T08:38:51;60.60;;;22.98;;
31990;SDS011;18508;49.386;8.370;2022-12-19T08:41:19;53.03;;;21.45;;
31990;SDS011;18508;49.386;8.370;2022-12-19T08:43:47;55.22;;;22.42;;
31990;SDS011;18508;49.386;8.370;2022-12-19T08:46:19;49.67;;;20.83;;
31990;SDS011;18508;49.386;8.370;2022-12-19T08:48:48;53.00;;;22.33;;
31990;SDS011;18508;49.386;8.370;2022-12-19T08:51:17;53.25;;;23.55;;
31990;SDS011;18508;49.386;8.370;2022-12-19T08:53:46;56.00;;;23.02;;
31990;SDS011;18508;49.386;8.370;2022-12-19T08:56:16;65.93;;;24.40;;
31990;SDS011;18508;49.386;8.370;2022-12-19T08:58:46;61.35;;;25.27;;
31990;SDS011;18508;49.386;8.370;2022-12-19T09:01:15;55.55;;;22.52;;
31990;SDS011;18508;49.386;8.370;2022-12-19T09:03:46;61.45;;;23.98;;
31990;SDS011;18508;49.386;8.370;2022-12-19T09:06:34;62.00;;;25.08;;
31990;SDS011;18508;49.386;8.370;2022-12-19T09:09:02;63.78;;;25.33;;
31990;SDS011;18508;49.386;8.370;2022-12-19T09:11:33;72.53;;;26.88;;
31990;SDS011;18508;49.386;8.370;2022-12-19T09:14:13;81.53;;;30.38;;
31990;SDS011;18508;49.386;8.370;2022-12-19T09:19:14;57.03;;;24.25;;
31990;SDS011;18508;49.386;8.370;2022-12-19T09:21:43;61.53;;;24.23;;
31990;SDS011;18508;49.386;8.370;2022-12-19T09:24:13;60.28;;;24.98;;
31990;SDS011;18508;49.386;8.370;2022-12-19T09:26:43;54.45;;;23.52;;
31990;SDS011;18508;49.386;8.370;2022-12-19T09:29:11;57.85;;;25.50;;
31990;SDS011;18508;49.386;8.370;2022-12-19T09:31:46;63.53;;;25.17;;
31990;SDS011;18508;49.386;8.370;2022-12-19T09:34:21;65.40;;;25.88;;
31990;SDS011;18508;49.386;8.370;2022-12-19T09:37:02;68.18;;;26.70;;
31990;SDS011;18508;49.386;8.370;2022-12-19T09:39:31;56.25;;;23.55;;
31990;SDS011;18508;49.386;8.370;2022-12-19T09:42:10;63.38;;;25.20;;
31990;SDS011;18508;49.386;8.370;2022-12-19T09:44:55;61.17;;;24.80;;
31990;SDS011;18508;49.386;8.370;2022-12-19T09:47:33;53.75;;;22.60;;
31990;SDS011;18508;49.386;8.370;2022-12-19T09:50:09;53.10;;;22.08;;
31990;SDS011;18508;49.386;8.370;2022-12-19T09:52:50;58.60;;;24.13;;
31990;SDS011;18508;49.386;8.370;2022-12-19T09:55:25;57.42;;;24.70;;
31990;SDS011;18508;49.386;8.370;2022-12-19T09:58:02;56.60;;;24.67;;
31990;SDS011;18508;49.386;8.370;2022-12-19T10:00:35;54.95;;;24.35;;
31990;SDS011;18508;49.386;8.370;2022-12-19T10:03:11;60.13;;;24.45;;
31990;SDS011;18508;49.386;8.370;2022-12-19T10:05:46;58.53;;;24.15;;
31990;SDS011;18508;49.386;8.370;2022-12-19T10:08:38;55.00;;;24.13;;
31990;SDS011;18508;49.386;8.370;2022-12-19T10:11:40;54.20;;;23.27;;
31990;SDS011;18508;49.386;8.370;2022-12-19T10:14:44;57.13;;;24.30;;
31990;SDS011;18508;49.386;8.370;2022-12-19T10:17:25;50.78;;;22.90;;
31990;SDS011;18508;49.386;8.370;2022-12-19T10:22:54;59.30;;;23.88;;
31990;SDS011;18508;49.386;8.370;2022-12-19T10:25:33;55.30;;;23.67;;
31990;SDS011;18508;49.386;8.370;2022-12-19T10:28:15;61.40;;;23.92;;
31990;SDS011;18508;49.386;8.370;2022-12-19T10:30:57;63.95;;;24.60;;
31990;SDS011;18508;49.386;8.370;2022-12-19T10:33:40;54.28;;;22.75;;
31990;SDS011;18508;49.386;8.370;2022-12-19T10:36:13;56.65;;;23.92;;
31990;SDS011;18508;49.386;8.370;2022-12-19T10:38:42;55.17;;;22.70;;
31990;SDS011;18508;49.386;8.370;2022-12-19T10:41:23;54.65;;;23.83;;
31990;SDS011;18508;49.386;8.370;2022-12-19T10:43:57;49.80;;;21.98;;
31990;SDS011;18508;49.386;8.370;2022-12-19T10:46:35;51.85;;;22.08;;
31990;SDS011;18508;49.386;8.370;2022-12-19T10:49:10;52.35;;;22.10;;
31990;SDS011;18508;49.386;8.370;2022-12-19T10:51:40;53.75;;;22.05;;
31990;SDS011;18508;49.386;8.370;2022-12-19T10:54:08;48.83;;;21.95;;
31990;SDS011;18508;49.386;8.370;2022-12-19T10:56:37;51.90;;;21.42;;
31990;SDS011;18508;49.386;8.370;2022-12-19T10:59:13;50.00;;;21.25;;
31990;SDS011;18508;49.386;8.370;2022-12-19T11:01:44;47.30;;;20.75;;
31990;SDS011;18508;49.386;8.370;2022-12-19T11:04:28;49.92;;;20.17;;
31990;SDS011;18508;49.386;8.370;2022-12-19T11:07:05;45.80;;;20.13;;
31990;SDS011;18508;49.386;8.370;2022-12-19T11:09:43;49.03;;;20.73;;
31990;SDS011;18508;49.386;8.370;2022-12-19T11:12:31;47.42;;;20.63;;
31990;SDS011;18508;49.386;8.370;2022-12-19T11:15:20;50.15;;;20.92;;
31990;SDS011;18508;49.386;8.370;2022-12-19T11:18:11;46.65;;;20.77;;
31990;SDS011;18508;49.386;8.370;2022-12-19T11:21:00;40.70;;;19.25;;
31990;SDS011;18508;49.386;8.370;2022-12-19T11:23:51;41.53;;;18.77;;
31990;SDS011;18508;49.386;8.370;2022-12-19T11:26:42;46.03;;;20.20;;
31990;SDS011;18508;49.386;8.370;2022-12-19T11:29:40;44.97;;;19.42;;
31990;SDS011;18508;49.386;8.370;2022-12-19T11:32:31;42.85;;;18.48;;
31990;SDS011;18508;49.386;8.370;2022-12-19T11:35:23;42.60;;;19.60;;
31990;SDS011;18508;49.386;8.370;2022-12-19T11:38:02;49.00;;;20.63;;
31990;SDS011;18508;49.386;8.370;2022-12-19T11:40:34;48.25;;;21.27;;
31990;SDS011;18508;49.386;8.370;2022-12-19T11:43:14;44.08;;;19.45;;
31990;SDS011;18508;49.386;8.370;2022-12-19T11:46:11;53.65;;;22.40;;
31990;SDS011;18508;49.386;8.370;2022-12-19T11:48:50;49.47;;;21.13;;
31990;SDS011;18508;49.386;8.370;2022-12-19T11:51:26;46.60;;;19.92;;
31990;SDS011;18508;49.386;8.370;2022-12-19T11:54:01;46.45;;;20.05;;
31990;SDS011;18508;49.386;8.370;2022-12-19T11:56:38;50.22;;;21.42;;
31990;SDS011;18508;49.386;8.370;2022-12-19T11:59:14;51.83;;;23.45;;
31990;SDS011;18508;49.386;8.370;2022-12-19T12:01:46;49.75;;;21.95;;
31990;SDS011;18508;49.386;8.370;2022-12-19T12:04:36;44.05;;;20.02;;
31990;SDS011;18508;49.386;8.370;2022-12-19T12:07:18;42.38;;;19.90;;
31990;SDS011;18508;49.386;8.370;2022-12-19T12:10:12;46.28;;;19.98;;
31990;SDS011;18508;49.386;8.370;2022-12-19T12:13:05;46.67;;;21.60;;
31990;SDS011;18508;49.386;8.370;2022-12-19T12:16:09;46.25;;;21.50;;
31990;SDS011;18508;49.386;8.370;2022-12-19T12:19:02;46.53;;;21.10;;
31990;SDS011;18508;49.386;8.370;2022-12-19T12:22:00;52.03;;;22.88;;
31990;SDS011;18508;49.386;8.370;2022-12-19T12:25:02;47.88;;;22.75;;
31990;SDS011;18508;49.386;8.370;2022-12-19T12:28:03;45.65;;;21.38;;
31990;SDS011;18508;49.386;8.370;2022-12-19T12:31:05;46.70;;;21.38;;
31990;SDS011;18508;49.386;8.370;2022-12-19T12:34:16;45.85;;;21.52;;
31990;SDS011;18508;49.386;8.370;2022-12-19T12:37:22;45.83;;;20.42;;
31990;SDS011;18508;49.386;8.370;2022-12-19T12:40:24;44.15;;;20.17;;
31990;SDS011;18508;49.386;8.370;2022-12-19T12:43:17;41.08;;;19.42;;
31990;SDS011;18508;49.386;8.370;2022-12-19T12:45:57;46.67;;;20.60;;
31990;SDS011;18508;49.386;8.370;2022-12-19T12:48:26;42.88;;;19.60;;
31990;SDS011;18508;49.386;8.370;2022-12-19T12:50:59;48.13;;;19.50;;
31990;SDS011;18508;49.386;8.370;2022-12-19T12:53:30;42.75;;;19.88;;
31990;SDS011;18508;49.386;8.370;2022-12-19T12:56:05;41.95;;;19.73;;
31990;SDS011;18508;49.386;8.370;2022-12-19T12:58:45;42.55;;;19.35;;
31990;SDS011;18508;49.386;8.370;2022-12-19T13:01:40;42.60;;;18.98;;
31990;SDS011;18508;49.386;8.370;2022-12-19T13:04:17;44.22;;;18.85;;
31990;SDS011;18508;49.386;8.370;2022-12-19T13:07:11;41.43;;;19.30;;
31990;SDS011;18508;49.386;8.370;2022-12-19T13:09:45;40.92;;;20.40;;
31990;SDS011;18508;49.386;8.370;2022-12-19T13:12:23;42.97;;;19.65;;
31990;SDS011;18508;49.386;8.370;2022-12-19T13:20:59;44.13;;;19.65;;
31990;SDS011;18508;49.386;8.370;2022-12-19T13:23:33;44.45;;;21.05;;
31990;SDS011;18508;49.386;8.370;2022-12-19T13:29:31;40.55;;;18.02;;
31990;SDS011;18508;49.386;8.370;2022-12-19T13:32:08;41.50;;;19.35;;
31990;SDS011;18508;49.386;8.370;2022-12-19T13:34:49;45.58;;;20.20;;
31990;SDS011;18508;49.386;8.370;2022-12-19T13:37:39;39.60;;;18.70;;
31990;SDS011;18508;49.386;8.370;2022-12-19T13:40:29;42.92;;;18.92;;
31990;SDS011;18508;49.386;8.370;2022-12-19T13:43:10;46.78;;;20.65;;
31990;SDS011;18508;49.386;8.370;2022-12-19T13:46:01;47.95;;;20.60;;
31990;SDS011;18508;49.386;8.370;2022-12-19T13:48:33;47.80;;;21.02;;
31990;SDS011;18508;49.386;8.370;2022-12-19T13:51:07;44.38;;;20.98;;
31990;SDS011;18508;49.386;8.370;2022-12-19T13:53:37;46.17;;;20.40;;
31990;SDS011;18508;49.386;8.370;2022-12-19T13:56:09;39.85;;;19.65;;
31990;SDS011;18508;49.386;8.370;2022-12-19T13:58:41;39.65;;;18.92;;
31990;SDS011;18508;49.386;8.370;2022-12-19T14:01:16;40.10;;;18.80;;
31990;SDS011;18508;49.386;8.370;2022-12-19T14:03:49;39.88;;;19.83;;
31990;SDS011;18508;49.386;8.370;2022-12-19T14:06:21;40.90;;;19.70;;
31990;SDS011;18508;49.386;8.370;2022-12-19T14:08:52;38.28;;;19.50;;
31990;SDS011;18508;49.386;8.370;2022-12-19T14:11:42;39.78;;;19.42;;
31990;SDS011;18508;49.386;8.370;2022-12-19T14:14:33;47.80;;;19.75;;
31990;SDS011;18508;49.386;8.370;2022-12-19T14:17:40;45.42;;;20.77;;
31990;SDS011;18508;49.386;8.370;2022-12-19T14:20:16;43.35;;;20.48;;
31990;SDS011;18508;49.386;8.370;2022-12-19T14:23:06;48.00;;;20.25;;
31990;SDS011;18508;49.386;8.370;2022-12-19T14:25:34;43.55;;;19.90;;
31990;SDS011;18508;49.386;8.370;2022-12-19T14:28:27;39.10;;;19.38;;
31990;SDS011;18508;49.386;8.370;2022-12-19T14:31:05;38.67;;;19.13;;
31990;SDS011;18508;49.386;8.370;2022-12-19T14:36:29;42.63;;;18.00;;
31990;SDS011;18508;49.386;8.370;2022-12-19T14:38:59;41.72;;;19.55;;
31990;SDS011;18508;49.386;8.370;2022-12-19T14:41:49;45.10;;;21.73;;
31990;SDS011;18508;49.386;8.370;2022-12-19T14:44:50;45.80;;;21.25;;
31990;SDS011;18508;49.386;8.370;2022-12-19T14:47:39;43.47;;;20.10;;
31990;SDS011;18508;49.386;8.370;2022-12-19T14:50:30;47.00;;;20.92;;
31990;SDS011;18508;49.386;8.370;2022-12-19T14:53:20;44.75;;;19.60;;
31990;SDS011;18508;49.386;8.370;2022-12-19T14:56:10;46.20;;;20.25;;
31990;SDS011;18508;49.386;8.370;2022-12-19T14:59:00;42.92;;;19.80;;
31990;SDS011;18508;49.386;8.370;2022-12-19T15:01:29;42.33;;;20.45;;
31990;SDS011;18508;49.386;8.370;2022-12-19T15:06:52;46.28;;;20.88;;
31990;SDS011;18508;49.386;8.370;2022-12-19T15:09:37;46.35;;;21.40;;
31990;SDS011;18508;49.386;8.370;2022-12-19T15:12:37;42.47;;;19.88;;
31990;SDS011;18508;49.386;8.370;2022-12-19T15:15:53;43.13;;;19.83;;
31990;SDS011;18508;49.386;8.370;2022-12-19T15:18:25;43.90;;;20.40;;
31990;SDS011;18508;49.386;8.370;2022-12-19T15:20:54;49.30;;;21.10;;
31990;SDS011;18508;49.386;8.370;2022-12-19T15:23:25;40.55;;;19.38;;
31990;SDS011;18508;49.386;8.370;2022-12-19T15:25:55;46.08;;;20.50;;
31990;SDS011;18508;49.386;8.370;2022-12-19T15:28:34;44.72;;;21.02;;
31990;SDS011;18508;49.386;8.370;2022-12-19T15:31:06;46.38;;;21.23;;
31990;SDS011;18508;49.386;8.370;2022-12-19T15:33:40;45.47;;;21.13;;